Aeroporto :
LOGIN :

Iscrizione | Disclaimer

   EN    FR    IT 

 










Sommario :    VFR   VFR Marginale   IFR   IFR Intensivo   IFR Molto Intensivo
Visibilità : 
Base nubi : 
>= 8 km
>= 3000ft
5 / 8 km
1000 / 3000 ft
1500m / 5 km
500 / 1000 ft
800 / 1500m
200 / 500 ft
< 800m
< 200 ft
Simboli :   Temporali  Nebbia  Neve Forte  Precipitazioni Forti  Vento > 20 kt
SIGMETs :   Varie  Temporali  Ghiacco  Turbolenza  Onda orograficha  Ceneri Vulcaniche






- Altitudine del aeroporto : 37 ft


EHVL - Vlieland Heliport

ULTIMO METAR :
  • 180125Z AUTO 02008KT 1100 BR OVC001 16/16 Q1014 RED

METARs OBSOLETI :
  • 180112Z AUTO 02007KT 2300 BR OVC002 16/16 Q1014 AMB
  • 180055Z AUTO 35007KT 4800 BR OVC002 17/17 Q1014 AMB
  • 180042Z AUTO 01008KT 4700 BR BKN003 OVC004 17/17 Q1014 YLO
  • 180026Z AUTO 36008KT 4500 BR BKN002 OVC003 17/17 Q1014 AMB
  • 172355Z AUTO 35009KT 3400 BR OVC002 17/17 Q1014 AMB
  • 172325Z AUTO 35007KT 3400 BR BKN002 OVC003 17/17 Q1014 AMB
  • 172310Z AUTO 34008KT 2800 BR BKN002 OVC003 17/17 Q1014 AMB
  • 172308Z AUTO 33008KT 2400 BR OVC001 17/17 Q1014 RED
  • 172255Z AUTO 33008KT 2000 BR OVC001 17/17 Q1014 RED
  • 172233Z AUTO 32007KT 1000 BR OVC001 17/17 Q1014 RED

Previsioni scadute.



MetMap, La meteo Aeronautica in un colpo d'occhio ! - Copyright ORBIFLY Dicembre 2007 - Disclaimer

ORBIFLY MET'MAP TEAM :

Programmazione e sviluppo : Alexandra Zaïnal
Concezione : Baudouin d'Aumeries
Aiuto per la programmazione : Marc-Olivier Méhu
Supporto tecnico e logistico : Manuel Goepfert
Aiuto per la traduzione : Arnaldo La Scala

Contatto : metmap@orbifly.com




FONTI E CREDITI :

   NOAA